sensor_id;sensor_type;location;lat;lon;timestamp;temperature;humidity
10388;DHT22;5240;51.128;4.566;2023-06-24T00:02:20;19.20;99.90
10388;DHT22;5240;51.128;4.566;2023-06-24T00:04:50;19.10;99.90
10388;DHT22;5240;51.128;4.566;2023-06-24T00:07:17;19.10;99.90
10388;DHT22;5240;51.128;4.566;2023-06-24T00:09:47;19.10;99.90
10388;DHT22;5240;51.128;4.566;2023-06-24T00:12:14;19.10;99.90
10388;DHT22;5240;51.128;4.566;2023-06-24T00:14:45;19.10;99.90
10388;DHT22;5240;51.128;4.566;2023-06-24T00:17:13;19.10;99.90
10388;DHT22;5240;51.128;4.566;2023-06-24T00:19:43;19.00;99.90
10388;DHT22;5240;51.128;4.566;2023-06-24T00:22:10;19.00;99.90
10388;DHT22;5240;51.128;4.566;2023-06-24T00:24:37;18.90;99.90
10388;DHT22;5240;51.128;4.566;2023-06-24T00:27:06;18.90;99.90
10388;DHT22;5240;51.128;4.566;2023-06-24T00:29:33;18.90;99.90
10388;DHT22;5240;51.128;4.566;2023-06-24T00:32:01;18.80;99.90
10388;DHT22;5240;51.128;4.566;2023-06-24T00:34:28;18.80;99.90
10388;DHT22;5240;51.128;4.566;2023-06-24T00:36:56;18.80;99.90
10388;DHT22;5240;51.128;4.566;2023-06-24T00:39:23;18.70;99.90
10388;DHT22;5240;51.128;4.566;2023-06-24T00:41:50;18.70;99.90
10388;DHT22;5240;51.128;4.566;2023-06-24T00:44:17;18.60;99.90
10388;DHT22;5240;51.128;4.566;2023-06-24T00:46:45;18.60;99.90
10388;DHT22;5240;51.128;4.566;2023-06-24T00:49:12;18.60;99.90
10388;DHT22;5240;51.128;4.566;2023-06-24T00:51:41;18.60;99.90
10388;DHT22;5240;51.128;4.566;2023-06-24T00:54:14;18.50;99.90
10388;DHT22;5240;51.128;4.566;2023-06-24T00:56:41;18.50;99.90
10388;DHT22;5240;51.128;4.566;2023-06-24T00:59:10;18.40;99.90
10388;DHT22;5240;51.128;4.566;2023-06-24T01:01:39;18.40;99.90
10388;DHT22;5240;51.128;4.566;2023-06-24T01:04:07;18.30;99.90
10388;DHT22;5240;51.128;4.566;2023-06-24T01:06:35;18.40;99.90
10388;DHT22;5240;51.128;4.566;2023-06-24T01:09:07;18.40;99.90
10388;DHT22;5240;51.128;4.566;2023-06-24T01:11:35;18.30;99.90
10388;DHT22;5240;51.128;4.566;2023-06-24T01:14:02;18.30;99.90
10388;DHT22;5240;51.128;4.566;2023-06-24T01:16:42;18.30;99.90
10388;DHT22;5240;51.128;4.566;2023-06-24T01:22:19;18.20;99.90
10388;DHT22;5240;51.128;4.566;2023-06-24T01:25:02;18.10;99.90
10388;DHT22;5240;51.128;4.566;2023-06-24T01:27:52;18.10;99.90
10388;DHT22;5240;51.128;4.566;2023-06-24T01:30:38;18.00;99.90
10388;DHT22;5240;51.128;4.566;2023-06-24T01:33:11;18.00;99.90
10388;DHT22;5240;51.128;4.566;2023-06-24T01:35:42;18.00;99.90
10388;DHT22;5240;51.128;4.566;2023-06-24T01:38:18;17.90;99.90
10388;DHT22;5240;51.128;4.566;2023-06-24T01:40:48;17.90;99.90
10388;DHT22;5240;51.128;4.566;2023-06-24T01:43:17;17.90;99.90
10388;DHT22;5240;51.128;4.566;2023-06-24T01:45:49;17.80;99.90
10388;DHT22;5240;51.128;4.566;2023-06-24T01:48:22;17.80;99.90
10388;DHT22;5240;51.128;4.566;2023-06-24T01:50:55;17.80;99.90
10388;DHT22;5240;51.128;4.566;2023-06-24T01:53:24;17.80;99.90
10388;DHT22;5240;51.128;4.566;2023-06-24T01:55:54;17.70;99.90
10388;DHT22;5240;51.128;4.566;2023-06-24T01:58:24;17.70;99.90
10388;DHT22;5240;51.128;4.566;2023-06-24T02:00:52;17.70;99.90
10388;DHT22;5240;51.128;4.566;2023-06-24T02:03:21;17.70;99.90
10388;DHT22;5240;51.128;4.566;2023-06-24T02:05:49;17.70;99.90
10388;DHT22;5240;51.128;4.566;2023-06-24T02:08:18;17.70;99.90
10388;DHT22;5240;51.128;4.566;2023-06-24T02:10:47;17.60;99.90
10388;DHT22;5240;51.128;4.566;2023-06-24T02:13:16;17.60;99.90
10388;DHT22;5240;51.128;4.566;2023-06-24T02:15:46;17.50;99.90
10388;DHT22;5240;51.128;4.566;2023-06-24T02:18:14;17.50;99.90
10388;DHT22;5240;51.128;4.566;2023-06-24T02:20:44;17.50;99.90
10388;DHT22;5240;51.128;4.566;2023-06-24T02:23:12;17.40;99.90
10388;DHT22;5240;51.128;4.566;2023-06-24T02:25:40;17.40;99.90
10388;DHT22;5240;51.128;4.566;2023-06-24T02:28:08;17.40;99.90
10388;DHT22;5240;51.128;4.566;2023-06-24T02:30:37;17.40;99.90
10388;DHT22;5240;51.128;4.566;2023-06-24T02:33:05;17.40;99.90
10388;DHT22;5240;51.128;4.566;2023-06-24T02:35:32;17.40;99.90
10388;DHT22;5240;51.128;4.566;2023-06-24T02:38:00;17.40;99.90
10388;DHT22;5240;51.128;4.566;2023-06-24T02:40:28;17.40;99.90
10388;DHT22;5240;51.128;4.566;2023-06-24T02:42:56;17.30;99.90
10388;DHT22;5240;51.128;4.566;2023-06-24T02:45:24;17.40;99.90
10388;DHT22;5240;51.128;4.566;2023-06-24T02:47:51;17.30;99.90
10388;DHT22;5240;51.128;4.566;2023-06-24T02:50:19;17.30;99.90
10388;DHT22;5240;51.128;4.566;2023-06-24T02:52:48;17.30;99.90
10388;DHT22;5240;51.128;4.566;2023-06-24T02:55:17;17.30;99.90
10388;DHT22;5240;51.128;4.566;2023-06-24T02:57:44;17.20;99.90
10388;DHT22;5240;51.128;4.566;2023-06-24T03:00:12;17.20;99.90
10388;DHT22;5240;51.128;4.566;2023-06-24T03:02:41;17.20;99.90
10388;DHT22;5240;51.128;4.566;2023-06-24T03:05:10;17.10;99.90
10388;DHT22;5240;51.128;4.566;2023-06-24T03:07:37;17.10;99.90
10388;DHT22;5240;51.128;4.566;2023-06-24T03:10:05;17.00;99.90
10388;DHT22;5240;51.128;4.566;2023-06-24T03:12:34;17.00;99.90
10388;DHT22;5240;51.128;4.566;2023-06-24T03:15:02;17.00;99.90
10388;DHT22;5240;51.128;4.566;2023-06-24T03:17:29;16.90;99.90
10388;DHT22;5240;51.128;4.566;2023-06-24T03:19:56;16.90;99.90
10388;DHT22;5240;51.128;4.566;2023-06-24T03:22:24;16.90;99.90
10388;DHT22;5240;51.128;4.566;2023-06-24T03:24:51;16.90;99.90
10388;DHT22;5240;51.128;4.566;2023-06-24T03:27:18;16.90;99.90
10388;DHT22;5240;51.128;4.566;2023-06-24T03:29:46;16.80;99.90
10388;DHT22;5240;51.128;4.566;2023-06-24T03:32:13;16.80;99.90
10388;DHT22;5240;51.128;4.566;2023-06-24T03:34:41;16.80;99.90
10388;DHT22;5240;51.128;4.566;2023-06-24T03:37:08;16.80;99.90
10388;DHT22;5240;51.128;4.566;2023-06-24T03:39:35;16.80;99.90
10388;DHT22;5240;51.128;4.566;2023-06-24T03:42:02;16.80;99.90
10388;DHT22;5240;51.128;4.566;2023-06-24T03:44:29;16.80;99.90
10388;DHT22;5240;51.128;4.566;2023-06-24T03:46:58;16.90;99.90
10388;DHT22;5240;51.128;4.566;2023-06-24T03:49:25;16.80;99.90
10388;DHT22;5240;51.128;4.566;2023-06-24T03:51:52;16.90;99.90
10388;DHT22;5240;51.128;4.566;2023-06-24T03:54:19;16.80;99.90
10388;DHT22;5240;51.128;4.566;2023-06-24T03:56:46;16.80;99.90
10388;DHT22;5240;51.128;4.566;2023-06-24T03:59:13;16.80;99.90
10388;DHT22;5240;51.128;4.566;2023-06-24T04:01:40;16.80;99.90
10388;DHT22;5240;51.128;4.566;2023-06-24T04:04:08;16.80;99.90
10388;DHT22;5240;51.128;4.566;2023-06-24T04:06:35;16.80;99.90
10388;DHT22;5240;51.128;4.566;2023-06-24T04:09:02;16.80;99.90
10388;DHT22;5240;51.128;4.566;2023-06-24T04:11:29;16.80;99.90
10388;DHT22;5240;51.128;4.566;2023-06-24T04:13:56;16.80;99.90
10388;DHT22;5240;51.128;4.566;2023-06-24T04:16:23;16.80;99.90
10388;DHT22;5240;51.128;4.566;2023-06-24T04:18:50;16.80;99.90
10388;DHT22;5240;51.128;4.566;2023-06-24T04:21:18;16.90;99.90
10388;DHT22;5240;51.128;4.566;2023-06-24T04:23:45;16.90;99.90
10388;DHT22;5240;51.128;4.566;2023-06-24T04:26:12;16.90;99.90
10388;DHT22;5240;51.128;4.566;2023-06-24T04:28:39;16.90;99.90
10388;DHT22;5240;51.128;4.566;2023-06-24T04:31:06;17.00;99.90
10388;DHT22;5240;51.128;4.566;2023-06-24T04:33:33;17.00;99.90
10388;DHT22;5240;51.128;4.566;2023-06-24T04:36:00;16.90;99.90
10388;DHT22;5240;51.128;4.566;2023-06-24T04:38:29;17.00;99.90
10388;DHT22;5240;51.128;4.566;2023-06-24T04:40:56;17.00;99.90
10388;DHT22;5240;51.128;4.566;2023-06-24T04:43:25;17.10;99.90
10388;DHT22;5240;51.128;4.566;2023-06-24T04:45:53;17.10;99.90
10388;DHT22;5240;51.128;4.566;2023-06-24T04:48:23;17.20;99.90
10388;DHT22;5240;51.128;4.566;2023-06-24T04:50:50;17.20;99.90
10388;DHT22;5240;51.128;4.566;2023-06-24T04:53:19;17.20;99.90
10388;DHT22;5240;51.128;4.566;2023-06-24T04:55:47;17.30;99.90
10388;DHT22;5240;51.128;4.566;2023-06-24T04:58:14;17.30;99.90
10388;DHT22;5240;51.128;4.566;2023-06-24T05:00:41;17.30;99.90
10388;DHT22;5240;51.128;4.566;2023-06-24T05:03:08;17.30;99.90
10388;DHT22;5240;51.128;4.566;2023-06-24T05:05:35;17.30;99.90
10388;DHT22;5240;51.128;4.566;2023-06-24T05:08:02;17.40;99.90
10388;DHT22;5240;51.128;4.566;2023-06-24T05:10:30;17.40;99.90
10388;DHT22;5240;51.128;4.566;2023-06-24T05:12:58;17.50;99.90
10388;DHT22;5240;51.128;4.566;2023-06-24T05:15:25;17.60;99.90
10388;DHT22;5240;51.128;4.566;2023-06-24T05:17:52;17.60;99.90
10388;DHT22;5240;51.128;4.566;2023-06-24T05:20:19;17.70;99.90
10388;DHT22;5240;51.128;4.566;2023-06-24T05:22:46;17.70;99.90
10388;DHT22;5240;51.128;4.566;2023-06-24T05:25:13;17.80;99.90
10388;DHT22;5240;51.128;4.566;2023-06-24T05:27:40;17.80;99.90
10388;DHT22;5240;51.128;4.566;2023-06-24T05:30:09;17.90;99.90
10388;DHT22;5240;51.128;4.566;2023-06-24T05:32:36;18.00;99.90
10388;DHT22;5240;51.128;4.566;2023-06-24T05:35:04;18.10;99.90
10388;DHT22;5240;51.128;4.566;2023-06-24T05:37:31;18.20;99.90
10388;DHT22;5240;51.128;4.566;2023-06-24T05:39:58;18.30;99.90
10388;DHT22;5240;51.128;4.566;2023-06-24T05:42:27;18.40;99.90
10388;DHT22;5240;51.128;4.566;2023-06-24T05:44:54;18.40;99.90
10388;DHT22;5240;51.128;4.566;2023-06-24T05:47:22;18.40;99.90
10388;DHT22;5240;51.128;4.566;2023-06-24T05:49:49;18.60;99.90
10388;DHT22;5240;51.128;4.566;2023-06-24T05:52:16;18.70;99.90
10388;DHT22;5240;51.128;4.566;2023-06-24T05:54:43;19.00;99.90
10388;DHT22;5240;51.128;4.566;2023-06-24T05:57:10;19.20;99.90
10388;DHT22;5240;51.128;4.566;2023-06-24T05:59:37;19.30;99.90
10388;DHT22;5240;51.128;4.566;2023-06-24T06:02:04;19.40;99.90
10388;DHT22;5240;51.128;4.566;2023-06-24T06:04:32;19.50;99.90
10388;DHT22;5240;51.128;4.566;2023-06-24T06:06:59;19.60;99.90
10388;DHT22;5240;51.128;4.566;2023-06-24T06:09:26;19.50;99.90
10388;DHT22;5240;51.128;4.566;2023-06-24T06:11:53;19.40;99.90
10388;DHT22;5240;51.128;4.566;2023-06-24T06:14:20;19.30;99.90
10388;DHT22;5240;51.128;4.566;2023-06-24T06:16:47;19.30;99.90
10388;DHT22;5240;51.128;4.566;2023-06-24T06:19:15;19.40;99.90
10388;DHT22;5240;51.128;4.566;2023-06-24T06:21:43;19.40;99.90
10388;DHT22;5240;51.128;4.566;2023-06-24T06:24:10;19.50;99.90
10388;DHT22;5240;51.128;4.566;2023-06-24T06:26:42;19.50;99.90
10388;DHT22;5240;51.128;4.566;2023-06-24T06:29:10;19.50;99.90
10388;DHT22;5240;51.128;4.566;2023-06-24T06:31:37;19.40;99.90
10388;DHT22;5240;51.128;4.566;2023-06-24T06:34:04;19.50;99.90
10388;DHT22;5240;51.128;4.566;2023-06-24T06:36:31;19.60;99.90
10388;DHT22;5240;51.128;4.566;2023-06-24T06:39:00;19.70;99.90
10388;DHT22;5240;51.128;4.566;2023-06-24T06:41:27;19.80;99.90
10388;DHT22;5240;51.128;4.566;2023-06-24T06:43:54;19.90;99.90
10388;DHT22;5240;51.128;4.566;2023-06-24T06:46:21;19.90;99.90
10388;DHT22;5240;51.128;4.566;2023-06-24T06:48:48;20.00;99.90
10388;DHT22;5240;51.128;4.566;2023-06-24T06:51:16;20.00;99.90
10388;DHT22;5240;51.128;4.566;2023-06-24T06:53:44;20.10;99.90
10388;DHT22;5240;51.128;4.566;2023-06-24T06:56:18;20.20;99.90
10388;DHT22;5240;51.128;4.566;2023-06-24T06:58:45;20.30;99.90
10388;DHT22;5240;51.128;4.566;2023-06-24T07:01:12;20.20;99.90
10388;DHT22;5240;51.128;4.566;2023-06-24T07:03:39;20.30;99.90
10388;DHT22;5240;51.128;4.566;2023-06-24T07:06:06;20.30;99.90
10388;DHT22;5240;51.128;4.566;2023-06-24T07:08:33;20.20;99.90
10388;DHT22;5240;51.128;4.566;2023-06-24T07:11:00;20.20;99.90
10388;DHT22;5240;51.128;4.566;2023-06-24T07:13:29;20.30;99.90
10388;DHT22;5240;51.128;4.566;2023-06-24T07:15:56;20.40;99.90
10388;DHT22;5240;51.128;4.566;2023-06-24T07:18:23;20.50;99.90
10388;DHT22;5240;51.128;4.566;2023-06-24T07:20:52;20.50;99.90
10388;DHT22;5240;51.128;4.566;2023-06-24T07:23:20;20.60;99.90
10388;DHT22;5240;51.128;4.566;2023-06-24T07:25:46;20.70;99.90
10388;DHT22;5240;51.128;4.566;2023-06-24T07:28:13;20.70;99.90
10388;DHT22;5240;51.128;4.566;2023-06-24T07:30:42;20.80;99.90
10388;DHT22;5240;51.128;4.566;2023-06-24T07:33:09;20.80;99.90
10388;DHT22;5240;51.128;4.566;2023-06-24T07:35:36;20.80;99.90
10388;DHT22;5240;51.128;4.566;2023-06-24T07:38:03;20.80;99.90
10388;DHT22;5240;51.128;4.566;2023-06-24T07:40:30;20.80;99.90
10388;DHT22;5240;51.128;4.566;2023-06-24T07:42:57;20.90;99.90
10388;DHT22;5240;51.128;4.566;2023-06-24T07:45:24;20.90;99.90
10388;DHT22;5240;51.128;4.566;2023-06-24T07:47:52;20.90;99.90
10388;DHT22;5240;51.128;4.566;2023-06-24T07:50:19;21.10;99.90
10388;DHT22;5240;51.128;4.566;2023-06-24T07:52:46;21.10;99.90
10388;DHT22;5240;51.128;4.566;2023-06-24T07:55:13;21.20;99.90
10388;DHT22;5240;51.128;4.566;2023-06-24T07:57:44;21.20;99.90
10388;DHT22;5240;51.128;4.566;2023-06-24T08:00:12;21.20;99.90
10388;DHT22;5240;51.128;4.566;2023-06-24T08:02:40;21.30;99.90
10388;DHT22;5240;51.128;4.566;2023-06-24T08:05:09;21.40;99.90
10388;DHT22;5240;51.128;4.566;2023-06-24T08:07:36;21.30;99.90
10388;DHT22;5240;51.128;4.566;2023-06-24T08:10:04;21.40;99.90
10388;DHT22;5240;51.128;4.566;2023-06-24T08:12:31;21.50;99.90
10388;DHT22;5240;51.128;4.566;2023-06-24T08:14:58;21.60;99.90
10388;DHT22;5240;51.128;4.566;2023-06-24T08:17:25;21.70;99.90
10388;DHT22;5240;51.128;4.566;2023-06-24T08:19:52;21.70;99.90
10388;DHT22;5240;51.128;4.566;2023-06-24T08:22:20;21.70;99.90
10388;DHT22;5240;51.128;4.566;2023-06-24T08:24:47;21.70;99.90
10388;DHT22;5240;51.128;4.566;2023-06-24T08:27:14;21.80;99.90
10388;DHT22;5240;51.128;4.566;2023-06-24T08:29:41;21.90;99.90
10388;DHT22;5240;51.128;4.566;2023-06-24T08:32:58;21.80;99.90
10388;DHT22;5240;51.128;4.566;2023-06-24T08:35:24;21.90;99.90
10388;DHT22;5240;51.128;4.566;2023-06-24T08:37:51;22.00;99.90
10388;DHT22;5240;51.128;4.566;2023-06-24T08:40:18;22.10;99.90
10388;DHT22;5240;51.128;4.566;2023-06-24T08:42:46;22.10;99.90
10388;DHT22;5240;51.128;4.566;2023-06-24T08:45:13;22.30;99.90
10388;DHT22;5240;51.128;4.566;2023-06-24T08:47:40;22.50;99.90
10388;DHT22;5240;51.128;4.566;2023-06-24T08:50:12;22.60;99.90
10388;DHT22;5240;51.128;4.566;2023-06-24T08:52:42;22.60;99.90
10388;DHT22;5240;51.128;4.566;2023-06-24T08:55:13;22.80;99.90
10388;DHT22;5240;51.128;4.566;2023-06-24T08:57:43;22.90;99.90
10388;DHT22;5240;51.128;4.566;2023-06-24T09:00:10;23.20;99.90
10388;DHT22;5240;51.128;4.566;2023-06-24T09:02:38;23.40;99.90
10388;DHT22;5240;51.128;4.566;2023-06-24T09:05:05;23.50;99.90
10388;DHT22;5240;51.128;4.566;2023-06-24T09:07:34;23.80;99.90
10388;DHT22;5240;51.128;4.566;2023-06-24T09:10:01;23.80;99.90
10388;DHT22;5240;51.128;4.566;2023-06-24T09:12:32;23.80;99.90
10388;DHT22;5240;51.128;4.566;2023-06-24T09:14:59;23.90;99.90
10388;DHT22;5240;51.128;4.566;2023-06-24T09:17:26;23.90;99.90
10388;DHT22;5240;51.128;4.566;2023-06-24T09:19:54;24.20;99.90
10388;DHT22;5240;51.128;4.566;2023-06-24T09:22:30;24.50;99.90
10388;DHT22;5240;51.128;4.566;2023-06-24T09:25:01;25.30;99.90
10388;DHT22;5240;51.128;4.566;2023-06-24T09:27:31;26.20;99.90
10388;DHT22;5240;51.128;4.566;2023-06-24T09:29:58;26.80;99.90
10388;DHT22;5240;51.128;4.566;2023-06-24T09:32:29;27.30;99.90
10388;DHT22;5240;51.128;4.566;2023-06-24T09:34:56;27.70;99.90
10388;DHT22;5240;51.128;4.566;2023-06-24T09:37:23;27.80;99.90
10388;DHT22;5240;51.128;4.566;2023-06-24T09:39:57;27.80;99.90
10388;DHT22;5240;51.128;4.566;2023-06-24T09:42:24;28.30;99.90
10388;DHT22;5240;51.128;4.566;2023-06-24T09:44:54;29.30;99.90
10388;DHT22;5240;51.128;4.566;2023-06-24T09:47:21;29.60;99.90
10388;DHT22;5240;51.128;4.566;2023-06-24T09:49:51;29.80;99.90
10388;DHT22;5240;51.128;4.566;2023-06-24T09:52:19;30.00;99.90
10388;DHT22;5240;51.128;4.566;2023-06-24T09:54:47;30.10;99.90
10388;DHT22;5240;51.128;4.566;2023-06-24T09:57:19;29.50;99.90
10388;DHT22;5240;51.128;4.566;2023-06-24T09:59:48;29.60;99.90
10388;DHT22;5240;51.128;4.566;2023-06-24T10:02:16;29.60;99.90
10388;DHT22;5240;51.128;4.566;2023-06-24T10:04:45;29.40;99.90
10388;DHT22;5240;51.128;4.566;2023-06-24T10:07:13;29.30;99.90
10388;DHT22;5240;51.128;4.566;2023-06-24T10:09:40;29.70;99.90
10388;DHT22;5240;51.128;4.566;2023-06-24T10:12:09;30.00;99.90
10388;DHT22;5240;51.128;4.566;2023-06-24T10:14:38;30.50;99.90
10388;DHT22;5240;51.128;4.566;2023-06-24T10:17:05;30.90;99.90
10388;DHT22;5240;51.128;4.566;2023-06-24T10:19:37;30.60;99.90
10388;DHT22;5240;51.128;4.566;2023-06-24T10:22:07;30.80;99.90
10388;DHT22;5240;51.128;4.566;2023-06-24T10:24:36;30.90;99.90
10388;DHT22;5240;51.128;4.566;2023-06-24T10:27:07;30.30;99.90
10388;DHT22;5240;51.128;4.566;2023-06-24T10:29:35;29.70;99.90
10388;DHT22;5240;51.128;4.566;2023-06-24T10:32:07;29.90;99.90
10388;DHT22;5240;51.128;4.566;2023-06-24T10:34:39;30.50;99.90
10388;DHT22;5240;51.128;4.566;2023-06-24T10:37:09;31.10;99.70
10388;DHT22;5240;51.128;4.566;2023-06-24T10:39:48;30.90;99.90
10388;DHT22;5240;51.128;4.566;2023-06-24T10:42:32;31.30;99.90
10388;DHT22;5240;51.128;4.566;2023-06-24T10:45:01;31.90;98.40
10388;DHT22;5240;51.128;4.566;2023-06-24T10:47:30;32.60;98.70
10388;DHT22;5240;51.128;4.566;2023-06-24T10:49:57;32.60;97.90
10388;DHT22;5240;51.128;4.566;2023-06-24T10:52:24;32.60;97.50
10388;DHT22;5240;51.128;4.566;2023-06-24T10:54:52;32.40;97.90
10388;DHT22;5240;51.128;4.566;2023-06-24T10:57:23;32.90;97.80
10388;DHT22;5240;51.128;4.566;2023-06-24T10:59:52;33.40;97.10
10388;DHT22;5240;51.128;4.566;2023-06-24T11:02:21;34.00;96.10
10388;DHT22;5240;51.128;4.566;2023-06-24T11:04:50;33.40;96.10
10388;DHT22;5240;51.128;4.566;2023-06-24T11:07:18;33.80;96.40
10388;DHT22;5240;51.128;4.566;2023-06-24T11:09:49;34.20;95.60
10388;DHT22;5240;51.128;4.566;2023-06-24T11:12:17;34.40;95.60
10388;DHT22;5240;51.128;4.566;2023-06-24T11:14:44;34.10;95.40
10388;DHT22;5240;51.128;4.566;2023-06-24T11:17:11;33.80;95.50
10388;DHT22;5240;51.128;4.566;2023-06-24T11:19:38;33.70;96.40
10388;DHT22;5240;51.128;4.566;2023-06-24T11:22:08;34.10;95.30
10388;DHT22;5240;51.128;4.566;2023-06-24T11:24:35;34.80;94.50
10388;DHT22;5240;51.128;4.566;2023-06-24T11:27:04;34.40;95.00
10388;DHT22;5240;51.128;4.566;2023-06-24T11:29:32;34.70;94.30
10388;DHT22;5240;51.128;4.566;2023-06-24T11:32:01;34.10;95.50
10388;DHT22;5240;51.128;4.566;2023-06-24T11:34:28;34.50;95.30
10388;DHT22;5240;51.128;4.566;2023-06-24T11:36:56;34.40;94.80
10388;DHT22;5240;51.128;4.566;2023-06-24T11:39:25;35.00;94.60
10388;DHT22;5240;51.128;4.566;2023-06-24T11:41:53;34.70;93.70
10388;DHT22;5240;51.128;4.566;2023-06-24T11:44:21;34.40;93.90
10388;DHT22;5240;51.128;4.566;2023-06-24T11:46:50;34.30;93.80
10388;DHT22;5240;51.128;4.566;2023-06-24T11:49:18;34.60;92.00
10388;DHT22;5240;51.128;4.566;2023-06-24T11:51:46;34.80;92.20
10388;DHT22;5240;51.128;4.566;2023-06-24T11:54:15;35.20;92.10
10388;DHT22;5240;51.128;4.566;2023-06-24T11:56:51;35.70;92.00
10388;DHT22;5240;51.128;4.566;2023-06-24T11:59:20;35.50;92.20
10388;DHT22;5240;51.128;4.566;2023-06-24T12:01:53;35.80;92.50
10388;DHT22;5240;51.128;4.566;2023-06-24T12:04:26;35.90;90.50
10388;DHT22;5240;51.128;4.566;2023-06-24T12:06:53;36.10;91.90
10388;DHT22;5240;51.128;4.566;2023-06-24T12:09:21;37.10;92.00
10388;DHT22;5240;51.128;4.566;2023-06-24T12:11:49;37.30;91.00
10388;DHT22;5240;51.128;4.566;2023-06-24T12:14:16;36.90;91.30
10388;DHT22;5240;51.128;4.566;2023-06-24T12:16:43;36.60;89.20
10388;DHT22;5240;51.128;4.566;2023-06-24T12:19:10;36.10;90.20
10388;DHT22;5240;51.128;4.566;2023-06-24T12:21:38;35.80;89.80
10388;DHT22;5240;51.128;4.566;2023-06-24T12:24:05;36.20;90.20
10388;DHT22;5240;51.128;4.566;2023-06-24T12:26:32;36.40;90.30
10388;DHT22;5240;51.128;4.566;2023-06-24T12:29:00;36.70;90.60
10388;DHT22;5240;51.128;4.566;2023-06-24T12:31:28;37.00;90.60
10388;DHT22;5240;51.128;4.566;2023-06-24T12:33:55;37.50;89.20
10388;DHT22;5240;51.128;4.566;2023-06-24T12:36:22;38.00;88.60
10388;DHT22;5240;51.128;4.566;2023-06-24T12:38:49;37.90;90.20
10388;DHT22;5240;51.128;4.566;2023-06-24T12:41:16;37.60;87.80
10388;DHT22;5240;51.128;4.566;2023-06-24T12:43:43;37.20;87.30
10388;DHT22;5240;51.128;4.566;2023-06-24T12:46:12;37.40;86.10
10388;DHT22;5240;51.128;4.566;2023-06-24T12:48:39;37.20;85.50
10388;DHT22;5240;51.128;4.566;2023-06-24T12:51:06;37.10;86.40
10388;DHT22;5240;51.128;4.566;2023-06-24T12:53:33;37.20;85.70
10388;DHT22;5240;51.128;4.566;2023-06-24T12:56:00;37.50;86.60
10388;DHT22;5240;51.128;4.566;2023-06-24T12:58:27;38.10;86.40
10388;DHT22;5240;51.128;4.566;2023-06-24T13:00:54;38.80;85.00
10388;DHT22;5240;51.128;4.566;2023-06-24T13:03:22;39.00;82.90
10388;DHT22;5240;51.128;4.566;2023-06-24T13:05:49;38.40;83.20
10388;DHT22;5240;51.128;4.566;2023-06-24T13:08:16;38.30;83.40
10388;DHT22;5240;51.128;4.566;2023-06-24T13:10:43;37.50;82.70
10388;DHT22;5240;51.128;4.566;2023-06-24T13:13:10;37.50;83.40
10388;DHT22;5240;51.128;4.566;2023-06-24T13:15:37;37.30;84.60
10388;DHT22;5240;51.128;4.566;2023-06-24T13:18:04;37.30;84.80
10388;DHT22;5240;51.128;4.566;2023-06-24T13:20:32;37.50;83.50
10388;DHT22;5240;51.128;4.566;2023-06-24T13:22:59;38.00;82.80
10388;DHT22;5240;51.128;4.566;2023-06-24T13:25:26;37.60;82.30
10388;DHT22;5240;51.128;4.566;2023-06-24T13:27:54;37.10;83.00
10388;DHT22;5240;51.128;4.566;2023-06-24T13:30:21;36.80;82.90
10388;DHT22;5240;51.128;4.566;2023-06-24T13:32:48;37.10;79.30
10388;DHT22;5240;51.128;4.566;2023-06-24T13:35:15;37.50;81.40
10388;DHT22;5240;51.128;4.566;2023-06-24T13:37:44;37.00;81.70
10388;DHT22;5240;51.128;4.566;2023-06-24T13:40:11;37.50;81.00
10388;DHT22;5240;51.128;4.566;2023-06-24T13:42:38;37.00;82.90
10388;DHT22;5240;51.128;4.566;2023-06-24T13:45:06;37.40;83.40
10388;DHT22;5240;51.128;4.566;2023-06-24T13:47:33;37.50;82.50
10388;DHT22;5240;51.128;4.566;2023-06-24T13:50:00;38.10;81.80
10388;DHT22;5240;51.128;4.566;2023-06-24T13:52:28;38.40;80.70
10388;DHT22;5240;51.128;4.566;2023-06-24T13:54:56;38.40;78.50
10388;DHT22;5240;51.128;4.566;2023-06-24T13:57:23;38.50;74.90
10388;DHT22;5240;51.128;4.566;2023-06-24T13:59:50;38.40;74.70
10388;DHT22;5240;51.128;4.566;2023-06-24T14:02:17;37.70;78.10
10388;DHT22;5240;51.128;4.566;2023-06-24T14:04:44;37.00;77.30
10388;DHT22;5240;51.128;4.566;2023-06-24T14:07:14;37.60;77.90
10388;DHT22;5240;51.128;4.566;2023-06-24T14:09:41;37.80;77.00
10388;DHT22;5240;51.128;4.566;2023-06-24T14:12:10;37.80;77.30
10388;DHT22;5240;51.128;4.566;2023-06-24T14:14:37;38.30;79.50
10388;DHT22;5240;51.128;4.566;2023-06-24T14:17:05;38.50;78.90
10388;DHT22;5240;51.128;4.566;2023-06-24T14:19:35;38.10;76.40
10388;DHT22;5240;51.128;4.566;2023-06-24T14:22:02;38.50;75.50
10388;DHT22;5240;51.128;4.566;2023-06-24T14:24:29;38.50;76.20
10388;DHT22;5240;51.128;4.566;2023-06-24T14:26:56;38.60;74.90
10388;DHT22;5240;51.128;4.566;2023-06-24T14:29:25;38.50;76.70
10388;DHT22;5240;51.128;4.566;2023-06-24T14:31:52;38.70;77.60
10388;DHT22;5240;51.128;4.566;2023-06-24T14:34:22;38.60;78.20
10388;DHT22;5240;51.128;4.566;2023-06-24T14:36:49;37.50;78.70
10388;DHT22;5240;51.128;4.566;2023-06-24T14:39:16;37.60;77.30
10388;DHT22;5240;51.128;4.566;2023-06-24T14:41:43;37.50;78.20
10388;DHT22;5240;51.128;4.566;2023-06-24T14:44:11;37.70;77.80
10388;DHT22;5240;51.128;4.566;2023-06-24T14:46:39;37.00;78.50
10388;DHT22;5240;51.128;4.566;2023-06-24T14:49:06;37.10;76.80
10388;DHT22;5240;51.128;4.566;2023-06-24T14:51:33;37.10;77.50
10388;DHT22;5240;51.128;4.566;2023-06-24T14:54:00;37.30;78.50
10388;DHT22;5240;51.128;4.566;2023-06-24T14:56:27;38.00;76.90
10388;DHT22;5240;51.128;4.566;2023-06-24T14:58:54;37.80;78.80
10388;DHT22;5240;51.128;4.566;2023-06-24T15:01:21;37.30;77.40
10388;DHT22;5240;51.128;4.566;2023-06-24T15:03:49;37.50;78.30
10388;DHT22;5240;51.128;4.566;2023-06-24T15:06:16;38.40;77.10
10388;DHT22;5240;51.128;4.566;2023-06-24T15:08:43;38.20;76.90
10388;DHT22;5240;51.128;4.566;2023-06-24T15:11:10;37.30;76.40
10388;DHT22;5240;51.128;4.566;2023-06-24T15:13:37;37.30;76.30
10388;DHT22;5240;51.128;4.566;2023-06-24T15:16:05;37.80;77.20
10388;DHT22;5240;51.128;4.566;2023-06-24T15:18:32;38.00;72.70
10388;DHT22;5240;51.128;4.566;2023-06-24T15:21:00;37.30;73.30
10388;DHT22;5240;51.128;4.566;2023-06-24T15:23:27;37.10;73.00
10388;DHT22;5240;51.128;4.566;2023-06-24T15:25:54;37.10;72.20
10388;DHT22;5240;51.128;4.566;2023-06-24T15:28:21;36.70;72.50
10388;DHT22;5240;51.128;4.566;2023-06-24T15:30:48;37.10;72.20
10388;DHT22;5240;51.128;4.566;2023-06-24T15:33:15;37.90;71.70
10388;DHT22;5240;51.128;4.566;2023-06-24T15:35:42;38.20;70.60
10388;DHT22;5240;51.128;4.566;2023-06-24T15:38:10;37.70;70.90
10388;DHT22;5240;51.128;4.566;2023-06-24T15:40:39;37.50;71.40
10388;DHT22;5240;51.128;4.566;2023-06-24T15:43:06;37.20;71.20
10388;DHT22;5240;51.128;4.566;2023-06-24T15:45:34;36.90;71.00
10388;DHT22;5240;51.128;4.566;2023-06-24T15:48:02;37.10;71.50
10388;DHT22;5240;51.128;4.566;2023-06-24T15:50:30;37.40;72.30
10388;DHT22;5240;51.128;4.566;2023-06-24T15:52:57;36.90;72.80
10388;DHT22;5240;51.128;4.566;2023-06-24T15:55:25;36.30;73.10